Time;durP1;ratioP1;P1;durP2;ratioP2;P2;SDS_P1;SDS_P2;PMS_P1;PMS_P2;Temp;Humidity;BMP_temperature;BMP_pressure;BME280_temperature;BME280_humidity;BME280_pressure;Samples;Min_cycle;Max_cycle;Signal;HPM_P1;HPM_P2
2022/09/09 00:02:30;;;;;;;2.37;1.80;;;;;;;18.66;57.14;98401.88;7004641;28;20340;-79
2022/09/09 00:05:59;;;;;;;3.80;2.10;;;;;;;18.81;56.40;98379.28;7005524;28;20286;-78
2022/09/09 00:09:22;;;;;;;4.90;2.03;;;;;;;19.05;56.43;98405.84;7004213;28;20558;-79
2022/09/09 00:12:52;;;;;;;4.63;2.00;;;;;;;18.91;55.81;98373.81;7021532;28;20288;-79
2022/09/09 00:16:18;;;;;;;5.10;1.97;;;;;;;19.00;56.20;98411.31;7031833;28;20284;-79
2022/09/09 00:19:43;;;;;;;4.67;2.47;;;;;;;18.92;56.77;98387.22;7031803;28;20205;-79
2022/09/09 00:23:12;;;;;;;5.37;2.07;;;;;;;18.80;56.53;98363.97;7028552;28;20206;-79
2022/09/09 00:26:39;;;;;;;1.83;1.73;;;;;;;18.68;56.62;98356.00;7004144;28;20233;-79
2022/09/09 00:30:13;;;;;;;4.03;2.90;;;;;;;18.79;56.95;98385.00;7003005;28;20714;-79
2022/09/09 00:33:35;;;;;;;4.80;1.90;;;;;;;18.81;57.11;98384.75;7004125;28;20700;-79
2022/09/09 00:36:57;;;;;;;4.03;1.90;;;;;;;18.65;57.47;98361.19;7003418;28;20241;-79
2022/09/09 00:40:26;;;;;;;5.23;2.00;;;;;;;18.76;56.97;98360.94;7003346;28;20208;-79
2022/09/09 00:43:54;;;;;;;3.97;2.00;;;;;;;18.91;56.85;98384.75;7003665;28;20263;-79
2022/09/09 00:47:27;;;;;;;3.30;1.90;;;;;;;18.71;57.18;98390.16;7003673;28;20640;-79
2022/09/09 00:50:55;;;;;;;3.80;2.00;;;;;;;19.00;56.51;98383.16;7003538;28;20197;-78
2022/09/09 00:54:40;;;;;;;3.83;2.00;;;;;;;19.30;56.10;98394.19;7003598;28;20649;-78
2022/09/09 00:58:02;;;;;;;3.80;2.00;;;;;;;19.62;54.99;98390.13;6998772;28;20714;-79
2022/09/09 01:01:24;;;;;;;5.07;2.00;;;;;;;19.40;55.49;98388.75;7002898;28;20335;-79
2022/09/09 01:04:46;;;;;;;4.20;1.90;;;;;;;18.96;56.65;98399.25;7002103;28;20234;-79
2022/09/09 01:08:30;;;;;;;4.30;1.93;;;;;;;19.14;56.52;98397.94;7002405;28;20226;-79
2022/09/09 01:11:56;;;;;;;3.30;2.00;;;;;;;19.20;56.06;98391.38;7003140;28;20217;-79
2022/09/09 01:15:24;;;;;;;5.30;1.70;;;;;;;19.32;56.12;98390.09;7002949;28;20313;-79
2022/09/09 01:18:50;;;;;;;3.27;1.90;;;;;;;19.47;55.11;98348.28;7002362;28;20200;-79
2022/09/09 01:22:17;;;;;;;7.23;2.07;;;;;;;19.63;55.33;98389.03;7001246;28;20289;-80
2022/09/09 01:26:09;;;;;;;3.57;2.00;;;;;;;19.60;55.36;98397.78;7002499;28;20447;-79
2022/09/09 01:29:30;;;;;;;3.10;1.83;;;;;;;19.34;55.86;98387.09;7002467;28;20324;-79
2022/09/09 01:32:55;;;;;;;2.37;1.90;;;;;;;19.08;56.74;98378.00;7002506;28;20317;-78
2022/09/09 01:36:24;;;;;;;3.37;1.60;;;;;;;19.58;55.58;98388.22;7003199;28;20236;-78
2022/09/09 01:39:46;;;;;;;5.40;2.30;;;;;;;19.75;55.19;98403.25;7001647;28;20186;-78
2022/09/09 01:43:09;;;;;;;6.87;2.10;;;;;;;19.28;56.13;98412.78;7002590;28;20205;-79
2022/09/09 01:46:31;;;;;;;6.87;2.40;;;;;;;19.21;56.64;98396.63;7002104;28;20691;-80
2022/09/09 01:49:52;;;;;;;5.80;2.10;;;;;;;19.23;56.54;98397.16;7001351;28;20202;-79
2022/09/09 01:53:15;;;;;;;4.20;1.83;;;;;;;19.28;56.49;98404.59;7002500;28;20205;-78
2022/09/09 01:56:44;;;;;;;3.37;2.20;;;;;;;19.17;57.27;98391.94;7001705;28;20280;-79
2022/09/09 02:00:10;;;;;;;3.07;2.10;;;;;;;19.12;56.25;98375.53;7001401;28;20197;-80
2022/09/09 02:03:34;;;;;;;3.60;1.70;;;;;;;19.32;56.19;98390.09;7001720;28;20183;-79
2022/09/09 02:06:57;;;;;;;1.67;1.57;;;;;;;19.54;55.28;98387.09;7002043;28;20233;-79
2022/09/09 02:10:22;;;;;;;3.27;2.10;;;;;;;18.79;57.60;98376.81;7001567;28;20205;-79
2022/09/09 02:13:46;;;;;;;3.57;1.87;;;;;;;19.01;57.90;98387.53;7003501;28;20292;-79
2022/09/09 02:17:11;;;;;;;5.00;2.13;;;;;;;19.19;57.18;98379.66;7008062;28;20311;-79
2022/09/09 02:20:33;;;;;;;3.73;2.00;;;;;;;19.17;57.08;98376.34;7006462;28;20261;-79
2022/09/09 02:23:56;;;;;;;3.23;2.10;;;;;;;18.72;58.72;98408.19;7007799;28;20243;-79
2022/09/09 02:27:18;;;;;;;2.80;2.00;;;;;;;18.37;59.45;98391.63;7007224;28;20277;-80
2022/09/09 02:30:41;;;;;;;3.53;2.07;;;;;;;17.96;60.55;98393.25;7007446;28;20572;-79
2022/09/09 02:34:04;;;;;;;9.50;2.17;;;;;;;18.65;58.55;98400.25;7007646;28;20242;-80
2022/09/09 02:37:30;;;;;;;3.03;1.83;;;;;;;18.75;58.24;98407.66;7007180;28;20366;-80
2022/09/09 02:40:51;;;;;;;3.17;1.97;;;;;;;18.60;58.89;98394.75;7007173;28;20316;-80
2022/09/09 02:44:16;;;;;;;3.07;2.00;;;;;;;19.10;57.18;98378.53;7007360;28;20205;-79
2022/09/09 02:47:40;;;;;;;5.87;3.00;;;;;;;18.55;58.51;98410.28;7006847;28;20312;-79
2022/09/09 02:51:10;;;;;;;3.13;2.20;;;;;;;18.75;58.37;98421.31;7014253;28;20237;-79
2022/09/09 02:54:32;;;;;;;1.97;1.87;;;;;;;18.63;58.93;98426.97;7022817;28;20209;-79
2022/09/09 02:57:55;;;;;;;4.47;2.20;;;;;;;18.57;58.77;98410.84;7007442;28;20279;-79
2022/09/09 03:01:17;;;;;;;2.17;1.80;;;;;;;18.77;57.95;98386.34;7007701;28;20283;-79
2022/09/09 03:04:39;;;;;;;5.30;2.17;;;;;;;18.93;57.43;98407.19;7007705;28;20293;-80
2022/09/09 03:08:03;;;;;;;5.10;2.20;;;;;;;18.79;57.00;98404.13;7006821;28;20712;-79
2022/09/09 03:11:24;;;;;;;5.63;2.20;;;;;;;18.16;58.60;98400.75;7007182;28;20261;-79
2022/09/09 03:14:46;;;;;;;2.67;1.97;;;;;;;18.12;58.45;98396.91;7006896;28;20198;-78
2022/09/09 03:18:08;;;;;;;5.93;2.20;;;;;;;18.30;58.31;98388.28;7006397;28;20233;-79
2022/09/09 03:21:30;;;;;;;6.87;2.07;;;;;;;18.33;58.55;98394.06;7005577;28;20680;-79
2022/09/09 03:24:52;;;;;;;9.33;2.00;;;;;;;18.67;57.44;98403.53;7005740;28;20266;-79
2022/09/09 03:28:14;;;;;;;3.20;1.80;;;;;;;18.68;57.05;98412.50;7005454;28;20197;-79
2022/09/09 03:31:36;;;;;;;4.13;2.20;;;;;;;18.51;57.29;98407.25;7006170;28;20564;-79
2022/09/09 03:34:58;;;;;;;3.00;1.77;;;;;;;18.64;56.95;98404.03;7006442;28;20205;-79
2022/09/09 03:38:19;;;;;;;4.27;2.00;;;;;;;18.83;56.48;98401.66;7005676;28;20292;-80
2022/09/09 03:41:43;;;;;;;3.47;2.00;;;;;;;18.81;56.30;98406.59;7006216;28;20292;-80
2022/09/09 03:45:07;;;;;;;4.23;1.70;;;;;;;18.65;56.45;98399.41;7006003;28;20622;-79
2022/09/09 03:48:28;;;;;;;2.20;1.90;;;;;;;18.92;55.75;98402.81;7005379;28;20212;-79
2022/09/09 03:51:50;;;;;;;4.03;1.70;;;;;;;19.17;54.92;98391.94;7006653;28;20290;-80
2022/09/09 03:55:11;;;;;;;3.83;2.10;;;;;;;19.07;54.93;98390.00;7005533;28;20297;-79
2022/09/09 03:58:35;;;;;;;3.40;1.50;;;;;;;19.13;54.69;98388.94;7004895;28;20231;-79
2022/09/09 04:01:58;;;;;;;3.83;1.90;;;;;;;19.41;54.22;98379.44;7008126;28;20221;-80
2022/09/09 04:05:20;;;;;;;3.73;1.63;;;;;;;19.45;54.30;98386.03;7032811;28;20221;-79
2022/09/09 04:08:42;;;;;;;3.67;1.70;;;;;;;19.76;53.25;98384.94;7032391;28;20265;-79
2022/09/09 04:12:04;;;;;;;3.30;1.93;;;;;;;19.94;52.58;98365.22;7033041;28;20789;-80
2022/09/09 04:15:27;;;;;;;6.63;1.70;;;;;;;19.90;52.24;98364.13;7032541;28;20705;-79
2022/09/09 04:18:49;;;;;;;3.60;1.60;;;;;;;19.76;52.34;98335.69;7018907;28;20816;-79
2022/09/09 04:22:11;;;;;;;3.03;1.63;;;;;;;19.31;54.46;98404.84;7018504;28;20221;-80
2022/09/09 04:25:33;;;;;;;3.10;2.37;;;;;;;19.07;54.35;98402.84;7012047;28;20221;-80
2022/09/09 04:28:55;;;;;;;3.73;1.70;;;;;;;19.25;53.76;98392.28;7002798;28;20202;-79
2022/09/09 04:32:18;;;;;;;3.40;1.97;;;;;;;19.12;53.49;98383.72;7003174;28;20209;-80
2022/09/09 04:35:40;;;;;;;3.00;1.87;;;;;;;19.52;52.68;98376.44;7004923;28;20308;-79
2022/09/09 04:39:02;;;;;;;2.27;1.73;;;;;;;19.14;54.60;98412.44;7005625;28;20291;-80
2022/09/09 04:42:23;;;;;;;5.70;2.23;;;;;;;19.02;54.24;98405.56;7006590;28;20291;-79
2022/09/09 04:45:48;;;;;;;6.83;2.00;;;;;;;19.73;52.78;98408.19;7007990;28;20589;-79
2022/09/09 04:49:11;;;;;;;4.13;1.60;;;;;;;20.23;51.13;98408.16;7006931;28;20298;-79
2022/09/09 04:52:34;;;;;;;5.83;1.80;;;;;;;19.28;53.49;98391.72;7010591;28;20255;-80
2022/09/09 04:56:02;;;;;;;3.73;2.03;;;;;;;19.97;51.81;98383.81;7032527;28;20349;-80
2022/09/09 04:59:23;;;;;;;5.00;2.10;;;;;;;19.88;52.10;98415.56;7018054;28;20198;-79
2022/09/09 05:02:45;;;;;;;2.37;2.03;;;;;;;19.68;52.51;98393.66;7026832;28;20221;-79
2022/09/09 05:06:10;;;;;;;3.40;2.20;;;;;;;20.81;50.17;98421.16;7031575;28;20304;-80
2022/09/09 05:09:32;;;;;;;4.70;2.27;;;;;;;20.46;51.94;98413.06;7022298;28;20287;-79
2022/09/09 05:12:54;;;;;;;3.00;1.90;;;;;;;19.78;54.52;98427.34;7033900;28;20235;-79
2022/09/09 05:16:16;;;;;;;3.63;2.00;;;;;;;20.13;53.28;98427.38;7027668;28;20363;-80
2022/09/09 05:19:37;;;;;;;4.07;2.10;;;;;;;20.71;52.32;98423.97;7033713;28;20278;-80
2022/09/09 05:23:00;;;;;;;2.53;1.90;;;;;;;20.95;51.39;98425.00;7008039;28;20296;-79
2022/09/09 05:26:23;;;;;;;2.73;1.60;;;;;;;20.70;52.95;98444.22;7005473;28;20319;-80
2022/09/09 05:29:45;;;;;;;4.63;2.00;;;;;;;20.33;53.89;98438.28;7025694;28;20204;-80
2022/09/09 05:33:09;;;;;;;3.40;2.00;;;;;;;20.31;53.75;98443.22;7033127;28;20214;-80
2022/09/09 05:36:30;;;;;;;2.77;1.80;;;;;;;20.23;53.32;98405.44;7013409;28;20458;-85
2022/09/09 05:39:53;;;;;;;3.47;2.07;;;;;;;20.59;53.13;98412.50;7011982;28;20213;-80
2022/09/09 05:43:15;;;;;;;2.80;1.90;;;;;;;20.79;52.80;98423.38;7006578;28;20226;-80
2022/09/09 05:46:36;;;;;;;4.20;2.00;;;;;;;21.03;52.28;98438.09;7005293;28;20289;-80
2022/09/09 05:49:58;;;;;;;4.37;1.93;;;;;;;20.91;52.77;98431.28;7020669;28;20340;-80
2022/09/09 05:53:19;;;;;;;3.60;1.87;;;;;;;20.77;53.13;98408.31;7033041;28;20293;-80
2022/09/09 05:56:43;;;;;;;5.17;1.93;;;;;;;20.96;53.58;98442.25;7032241;28;20240;-79
2022/09/09 06:00:05;;;;;;;4.43;2.10;;;;;;;20.80;53.62;98424.22;7007127;28;20195;-79
2022/09/09 06:03:27;;;;;;;4.40;2.30;;;;;;;20.87;54.35;98457.59;7004249;28;20239;-79
2022/09/09 06:06:48;;;;;;;3.43;1.90;;;;;;;20.83;53.80;98447.19;7028348;28;20317;-78
2022/09/09 06:10:10;;;;;;;4.47;2.03;;;;;;;21.03;52.75;98449.06;7030061;28;20202;-79
2022/09/09 06:13:33;;;;;;;5.53;1.83;;;;;;;21.05;52.68;98457.81;7006659;28;20295;-79
2022/09/09 06:16:54;;;;;;;4.53;1.97;;;;;;;21.16;51.94;98458.63;7018795;28;20289;-78
2022/09/09 06:20:16;;;;;;;4.27;1.97;;;;;;;20.92;53.04;98446.66;7002353;28;20210;-79
2022/09/09 06:23:41;;;;;;;2.57;1.83;;;;;;;21.53;51.28;98438.66;7005924;28;20222;-79
2022/09/09 06:27:02;;;;;;;2.33;1.50;;;;;;;21.54;50.75;98406.56;7004751;28;20234;-79
2022/09/09 06:30:25;;;;;;;3.90;1.40;;;;;;;21.95;50.61;98421.66;7004726;28;20817;-79
2022/09/09 06:33:46;;;;;;;4.40;1.73;;;;;;;22.27;50.35;98447.44;7006889;28;20273;-79
2022/09/09 06:37:08;;;;;;;3.00;1.67;;;;;;;22.19;49.66;98448.06;7009018;28;20217;-79
2022/09/09 06:40:30;;;;;;;1.93;1.67;;;;;;;21.45;50.69;98413.75;7005383;28;20226;-80
2022/09/09 06:43:51;;;;;;;4.30;1.93;;;;;;;21.88;50.37;98443.09;7005223;28;20213;-79
2022/09/09 06:47:14;;;;;;;6.70;2.03;;;;;;;22.22;49.27;98446.66;7004113;28;20268;-79
2022/09/09 06:50:36;;;;;;;1.80;1.37;;;;;;;21.82;50.45;98445.06;7003171;28;20270;-79
2022/09/09 06:53:58;;;;;;;4.97;1.90;;;;;;;22.74;48.47;98458.53;7015684;28;20215;-80
2022/09/09 06:57:20;;;;;;;1.93;1.57;;;;;;;22.47;48.25;98457.44;7046781;28;20647;-79
2022/09/09 07:00:42;;;;;;;4.50;2.10;;;;;;;22.56;49.29;98461.22;7038308;28;20215;-79
2022/09/09 07:04:07;;;;;;;3.63;1.90;;;;;;;22.75;47.93;98459.34;7034440;28;20253;-79
2022/09/09 07:07:30;;;;;;;3.90;1.80;;;;;;;22.66;48.16;98461.91;7015656;28;20702;-79
2022/09/09 07:10:53;;;;;;;3.80;1.73;;;;;;;22.93;47.57;98437.44;7037189;28;20216;-79
2022/09/09 07:14:16;;;;;;;2.20;1.70;;;;;;;22.89;47.69;98463.84;7009947;28;20200;-79
2022/09/09 07:17:38;;;;;;;2.80;1.77;;;;;;;22.22;48.29;98463.13;7014752;28;20243;-80
2022/09/09 07:21:02;;;;;;;5.33;1.77;;;;;;;23.10;47.03;98450.69;7036349;28;20214;-79
2022/09/09 07:24:23;;;;;;;2.60;1.40;;;;;;;23.70;45.88;98434.19;7036990;28;20263;-79
2022/09/09 07:27:45;;;;;;;5.53;1.80;;;;;;;24.12;45.75;98447.88;7037044;28;20376;-79
2022/09/09 07:31:07;;;;;;;2.27;1.80;;;;;;;23.89;45.62;98443.28;7038035;28;20206;-79
2022/09/09 07:34:29;;;;;;;3.33;1.70;;;;;;;24.24;43.96;98450.16;7039630;28;20215;-80
2022/09/09 07:37:52;;;;;;;2.37;1.50;;;;;;;23.97;45.63;98436.28;7038428;28;20606;-79
2022/09/09 07:41:17;;;;;;;2.30;1.57;;;;;;;24.45;44.27;98437.66;7014547;28;20803;-78
2022/09/09 07:44:39;;;;;;;3.23;1.60;;;;;;;23.45;45.80;98458.50;7008840;28;20676;-78
2022/09/09 07:48:01;;;;;;;1.63;1.40;;;;;;;24.15;44.88;98454.72;7006407;28;20597;-78
2022/09/09 07:51:24;;;;;;;2.53;1.50;;;;;;;24.48;44.01;98459.13;7012801;28;20234;-79
2022/09/09 07:54:47;;;;;;;3.37;1.60;;;;;;;24.45;44.84;98455.03;7022812;28;20229;-78
2022/09/09 07:58:08;;;;;;;3.27;1.57;;;;;;;24.58;42.95;98418.41;7032139;28;20769;-79
2022/09/09 08:01:31;;;;;;;1.80;1.30;;;;;;;24.99;42.52;98446.00;7035225;28;20206;-80
2022/09/09 08:04:53;;;;;;;5.53;2.07;;;;;;;24.67;43.28;98455.19;7030985;28;20683;-80
2022/09/09 08:08:14;;;;;;;1.87;1.43;;;;;;;24.37;43.84;98472.22;7031896;28;20255;-79
2022/09/09 08:11:38;;;;;;;2.53;1.60;;;;;;;24.57;44.61;98482.94;7034198;28;20215;-80
2022/09/09 08:14:59;;;;;;;2.30;1.20;;;;;;;25.43;42.23;98465.56;7033192;28;20747;-80
2022/09/09 08:18:21;;;;;;;2.27;1.43;;;;;;;26.03;40.33;98462.25;7033076;28;20308;-80
2022/09/09 08:21:44;;;;;;;1.90;1.70;;;;;;;25.63;41.24;98471.44;7031623;28;20204;-78
2022/09/09 08:25:08;;;;;;;2.27;1.50;;;;;;;26.80;39.47;98466.38;7032595;28;20734;-79
2022/09/09 08:28:31;;;;;;;2.13;1.73;;;;;;;26.51;38.90;98440.28;7033537;28;20714;-79
2022/09/09 08:31:56;;;;;;;4.70;1.80;;;;;;;26.38;40.13;98464.13;7034196;28;20575;-79
2022/09/09 08:35:20;;;;;;;4.57;1.87;;;;;;;25.43;41.31;98462.78;7032809;28;20236;-79
2022/09/09 08:38:41;;;;;;;3.23;1.33;;;;;;;25.37;42.13;98469.53;7006970;28;20566;-79
2022/09/09 08:42:29;;;;;;;3.00;1.80;;;;;;;25.90;40.89;98481.63;7004167;28;20289;-79
2022/09/09 08:45:57;;;;;;;1.77;1.60;;;;;;;25.77;41.09;98480.50;7003876;28;20320;-79
2022/09/09 08:49:38;;;;;;;4.00;1.80;;;;;;;26.16;40.67;98471.59;7004512;28;20509;-79
2022/09/09 08:53:03;;;;;;;2.47;1.60;;;;;;;27.34;38.91;98484.50;7007836;28;20194;-79
2022/09/09 08:56:26;;;;;;;2.17;1.67;;;;;;;26.80;39.17;98441.47;7012364;28;20238;-79
2022/09/09 08:59:48;;;;;;;3.80;1.60;;;;;;;27.34;39.00;98481.75;7015641;28;20206;-79
2022/09/09 09:03:17;;;;;;;5.50;1.90;;;;;;;27.77;38.26;98482.66;7006883;28;20237;-80
2022/09/09 09:06:46;;;;;;;5.57;1.50;;;;;;;28.22;36.93;98475.69;7003311;28;20317;-77
2022/09/09 09:10:17;;;;;;;6.07;1.77;;;;;;;28.38;36.79;98468.53;7001147;28;20198;-77
2022/09/09 09:13:44;;;;;;;3.27;1.60;;;;;;;27.11;38.29;98472.69;7002998;28;20250;-77
2022/09/09 09:17:07;;;;;;;4.20;1.60;;;;;;;27.53;38.17;98460.13;7001786;28;20226;-77
2022/09/09 09:20:36;;;;;;;2.20;1.57;;;;;;;28.95;35.30;98445.72;6999414;28;20347;-77
2022/09/09 09:23:59;;;;;;;3.57;1.63;;;;;;;27.20;37.87;98447.84;7001584;28;20348;-77
2022/09/09 09:27:30;;;;;;;3.20;1.90;;;;;;;28.10;37.30;98442.25;7019256;28;20230;-77
2022/09/09 09:30:55;;;;;;;3.97;1.57;;;;;;;28.90;35.33;98434.75;7028492;28;20597;-77
2022/09/09 09:34:17;;;;;;;5.77;1.43;;;;;;;28.10;35.92;98436.72;7030112;28;20225;-77
2022/09/09 09:37:43;;;;;;;3.33;1.43;;;;;;;27.78;35.64;98420.59;7029884;28;20225;-78
2022/09/09 09:41:05;;;;;;;3.50;1.40;;;;;;;28.48;35.98;98441.25;7030223;28;20265;-77
2022/09/09 09:44:28;;;;;;;5.23;1.57;;;;;;;28.10;34.92;98443.09;7030253;28;20280;-77
2022/09/09 09:47:59;;;;;;;3.27;1.60;;;;;;;26.79;37.18;98445.34;7029684;28;20609;-78
2022/09/09 09:51:22;;;;;;;10.57;2.37;;;;;;;24.60;48.32;98496.13;7031846;28;20318;-78
2022/09/09 09:54:45;;;;;;;6.10;1.70;;;;;;;24.47;46.57;98446.44;7031444;28;20213;-76
2022/09/09 09:58:08;;;;;;;2.00;1.30;;;;;;;24.90;43.63;98456.13;7029391;28;20250;-77
2022/09/09 10:01:33;;;;;;;3.20;1.77;;;;;;;26.71;43.83;98456.41;7002049;28;20276;-77
2022/09/09 10:05:02;;;;;;;1.60;0.80;;;;;;;27.13;37.50;98439.16;7002254;28;20205;-77
2022/09/09 10:08:24;;;;;;;1.57;1.00;;;;;;;26.74;37.96;98444.69;7013701;28;20252;-77
2022/09/09 10:11:53;;;;;;;1.40;0.90;;;;;;;26.40;39.43;98427.84;7029575;28;20204;-77
2022/09/09 10:15:36;;;;;;;3.43;1.30;;;;;;;27.94;38.13;98438.34;7029717;28;20253;-81
2022/09/09 10:19:00;;;;;;;1.37;0.70;;;;;;;26.99;37.45;98441.19;7026708;28;20238;-76
2022/09/09 10:22:27;;;;;;;2.10;1.07;;;;;;;27.40;38.60;98425.06;6999463;28;20202;-77
2022/09/09 10:26:02;;;;;;;1.97;1.17;;;;;;;26.99;38.20;98428.19;7024036;28;20240;-79
2022/09/09 10:29:37;;;;;;;1.80;0.97;;;;;;;27.64;37.55;98420.72;7026634;28;20274;-81
2022/09/09 10:33:06;;;;;;;2.47;1.20;;;;;;;28.26;36.46;98416.47;7023449;28;20194;-79
2022/09/09 10:36:29;;;;;;;3.10;1.10;;;;;;;28.11;36.42;98419.75;7006148;28;20229;-79
2022/09/09 10:39:57;;;;;;;4.33;1.20;;;;;;;28.75;35.11;98415.06;7007221;28;20207;-78
2022/09/09 10:43:30;;;;;;;2.10;1.00;;;;;;;28.53;35.15;98398.66;7032655;28;20205;-79
2022/09/09 10:47:08;;;;;;;2.27;1.07;;;;;;;27.56;34.04;98404.09;7021156;28;20300;-79
2022/09/09 10:50:41;;;;;;;2.37;1.43;;;;;;;28.35;34.32;98422.00;7006787;28;20597;-79
2022/09/09 10:54:18;;;;;;;3.53;1.30;;;;;;;27.40;34.62;98422.31;7008269;28;20202;-80
2022/09/09 10:57:42;;;;;;;1.33;1.23;;;;;;;28.29;35.19;98410.28;7006697;28;20234;-78
2022/09/09 11:01:11;;;;;;;6.43;1.23;;;;;;;28.98;33.27;98410.94;7007688;28;20234;-79
2022/09/09 11:04:40;;;;;;;5.03;1.30;;;;;;;28.82;32.64;98390.38;7008550;28;20299;-80
2022/09/09 11:08:04;;;;;;;2.70;1.73;;;;;;;28.21;33.94;98402.81;7022494;28;20366;-80
2022/09/09 11:11:30;;;;;;;3.47;1.60;;;;;;;27.72;34.26;98413.56;7025540;28;20351;-80
2022/09/09 11:14:57;;;;;;;2.67;1.30;;;;;;;28.04;34.15;98388.97;7022734;28;20209;-79
2022/09/09 11:18:21;;;;;;;2.57;1.27;;;;;;;28.13;33.34;98381.44;7015187;28;20197;-80
2022/09/09 11:21:46;;;;;;;3.40;1.43;;;;;;;28.04;35.23;98388.13;7023343;28;20208;-79
2022/09/09 11:25:11;;;;;;;4.27;1.77;;;;;;;28.01;34.95;98386.03;7023261;28;20225;-79
2022/09/09 11:28:42;;;;;;;3.43;1.53;;;;;;;27.40;35.03;98400.16;7006838;28;20308;-79
2022/09/09 11:32:13;;;;;;;3.67;1.40;;;;;;;27.70;35.60;98396.41;7007380;28;20194;-80
2022/09/09 11:35:45;;;;;;;3.43;1.43;;;;;;;26.99;35.10;98399.69;7007127;28;20267;-79
2022/09/09 11:39:36;;;;;;;3.07;1.70;;;;;;;27.17;35.82;98398.63;7006765;28;20250;-80
2022/09/09 11:43:06;;;;;;;3.40;1.50;;;;;;;26.68;36.60;98398.94;7012378;28;20334;-79
2022/09/09 11:46:35;;;;;;;3.07;1.60;;;;;;;26.12;35.42;98421.66;7034774;28;20266;-79
2022/09/09 11:50:08;;;;;;;1.73;1.30;;;;;;;25.59;35.80;98442.81;7036387;28;20298;-78
2022/09/09 11:53:30;;;;;;;5.20;1.90;;;;;;;24.32;38.26;98452.22;7039531;28;20205;-80
2022/09/09 11:56:53;;;;;;;3.77;1.70;;;;;;;24.03;46.10;98490.19;7012102;28;20786;-80
2022/09/09 12:00:32;;;;;;;5.23;1.60;;;;;;;23.56;51.76;98499.38;7006307;28;20215;-78
2022/09/09 12:04:02;;;;;;;4.63;1.60;;;;;;;23.58;50.83;98475.13;7007012;28;20337;-79
2022/09/09 12:07:32;;;;;;;3.17;1.30;;;;;;;23.46;45.11;98447.22;7007043;28;20713;-79
2022/09/09 12:10:55;;;;;;;4.10;1.30;;;;;;;24.03;46.17;98474.47;7027391;28;20313;-79
2022/09/09 12:14:24;;;;;;;2.60;1.37;;;;;;;25.14;46.82;98441.00;7025340;28;20226;-79
2022/09/09 12:17:47;;;;;;;3.37;1.47;;;;;;;25.87;46.24;98440.78;7005562;28;20324;-78
2022/09/09 12:21:18;;;;;;;6.03;1.43;;;;;;;26.36;41.78;98451.75;7005885;28;20268;-79
2022/09/09 12:24:44;;;;;;;2.20;1.27;;;;;;;26.31;41.94;98440.84;7006128;28;20638;-80
2022/09/09 12:28:10;;;;;;;4.00;1.60;;;;;;;26.81;42.99;98443.09;7005751;28;20239;-79
2022/09/09 12:31:36;;;;;;;3.07;1.67;;;;;;;27.74;41.01;98444.50;7006162;28;20281;-78
2022/09/09 12:35:01;;;;;;;2.97;1.43;;;;;;;28.00;37.85;98443.41;7005929;28;20190;-80
2022/09/09 12:38:28;;;;;;;1.60;1.17;;;;;;;27.29;37.06;98421.78;7004601;28;20230;-80
2022/09/09 12:41:57;;;;;;;2.60;1.60;;;;;;;26.84;38.35;98366.94;7014614;28;20283;-79
2022/09/09 12:45:20;;;;;;;1.20;1.10;;;;;;;26.77;40.05;98421.94;7032854;28;20591;-80
2022/09/09 12:48:43;;;;;;;2.07;1.10;;;;;;;27.85;37.02;98429.22;7029748;28;20226;-79
2022/09/09 12:52:07;;;;;;;3.40;1.30;;;;;;;27.28;37.27;98413.81;7032166;28;20206;-79
2022/09/09 12:55:33;;;;;;;2.20;0.80;;;;;;;26.95;35.53;98420.84;7032301;28;20610;-79
2022/09/09 12:58:57;;;;;;;2.53;0.97;;;;;;;27.77;33.60;98407.84;7033277;28;20190;-79
2022/09/09 13:02:23;;;;;;;1.43;0.80;;;;;;;27.80;35.17;98377.56;7032810;28;20284;-79
2022/09/09 13:05:46;;;;;;;1.33;0.80;;;;;;;27.71;34.23;98406.41;7033527;28;20281;-79
2022/09/09 13:09:09;;;;;;;2.87;1.00;;;;;;;27.18;34.73;98400.28;7031810;28;20235;-78
2022/09/09 13:12:31;;;;;;;1.70;0.80;;;;;;;26.83;34.59;98395.75;7032128;28;20193;-80
2022/09/09 13:15:55;;;;;;;1.13;1.00;;;;;;;26.87;33.87;98389.25;7033040;28;20245;-80
2022/09/09 13:19:17;;;;;;;4.90;1.73;;;;;;;26.81;35.40;98378.63;7030988;28;20204;-78
2022/09/09 13:22:40;;;;;;;2.93;0.90;;;;;;;26.51;33.68;98390.50;7030657;28;20217;-77
2022/09/09 13:26:04;;;;;;;1.60;0.73;;;;;;;26.83;33.69;98381.91;7031045;28;20227;-76
2022/09/09 13:29:25;;;;;;;2.90;1.00;;;;;;;26.44;34.14;98387.41;7030437;28;20375;-79
2022/09/09 13:32:47;;;;;;;1.40;1.10;;;;;;;26.30;33.86;98384.72;7031208;28;20300;-78
2022/09/09 13:36:10;;;;;;;1.27;1.17;;;;;;;26.66;32.90;98366.06;7031378;28;20266;-79
2022/09/09 13:39:33;;;;;;;1.70;1.10;;;;;;;26.70;32.51;98369.81;7030709;28;20694;-81
2022/09/09 13:42:57;;;;;;;4.93;1.20;;;;;;;26.87;33.11;98372.66;7031345;28;20232;-76
2022/09/09 13:46:33;;;;;;;3.30;1.20;;;;;;;26.36;32.55;98361.31;7031364;28;20693;-79
2022/09/09 13:49:54;;;;;;;3.67;1.40;;;;;;;27.15;33.43;98379.56;7030765;28;20702;-80
2022/09/09 13:53:16;;;;;;;2.17;1.10;;;;;;;28.11;31.46;98364.31;7031266;28;20296;-80
2022/09/09 13:56:40;;;;;;;3.00;1.50;;;;;;;28.42;30.41;98347.47;7031448;28;20323;-80
2022/09/09 14:00:02;;;;;;;3.57;1.27;;;;;;;28.37;30.45;98348.44;7030921;28;20293;-79
2022/09/09 14:03:23;;;;;;;1.70;0.97;;;;;;;28.90;29.67;98351.50;7032052;28;20206;-81
2022/09/09 14:06:45;;;;;;;2.57;0.87;;;;;;;29.03;29.44;98353.25;7031594;28;20246;-81
2022/09/09 14:10:08;;;;;;;3.20;1.30;;;;;;;27.84;31.00;98353.59;7032499;28;20348;-82
2022/09/09 14:13:31;;;;;;;1.10;0.93;;;;;;;27.31;32.35;98374.41;7037269;28;20695;-81
2022/09/09 14:16:52;;;;;;;2.57;0.90;;;;;;;27.49;31.59;98373.28;7025868;28;20230;-81
2022/09/09 14:20:15;;;;;;;2.40;1.17;;;;;;;26.97;32.04;98382.59;7031080;28;20237;-81
2022/09/09 14:23:38;;;;;;;1.80;1.07;;;;;;;26.02;32.94;98387.97;7032848;28;20204;-81
2022/09/09 14:26:59;;;;;;;3.00;1.03;;;;;;;26.32;33.28;98381.63;7031826;28;20221;-80
2022/09/09 14:30:22;;;;;;;2.33;1.37;;;;;;;26.52;32.58;98365.31;7031424;28;20315;-80
2022/09/09 14:33:44;;;;;;;1.93;1.37;;;;;;;26.30;33.08;98351.53;7032408;28;20226;-81
2022/09/09 14:37:06;;;;;;;1.83;1.20;;;;;;;26.67;32.70;98362.16;7032613;28;20312;-81
2022/09/09 14:40:27;;;;;;;1.20;1.10;;;;;;;26.74;32.22;98364.47;7032791;28;20201;-80
2022/09/09 14:43:49;;;;;;;2.93;0.97;;;;;;;26.64;31.02;98354.50;7032824;28;20220;-81
2022/09/09 14:47:12;;;;;;;2.80;1.00;;;;;;;26.87;30.88;98344.97;7033349;28;20256;-81
2022/09/09 14:50:34;;;;;;;1.40;0.90;;;;;;;27.34;30.60;98362.69;7032430;28;20378;-81
2022/09/09 14:53:57;;;;;;;1.03;0.90;;;;;;;26.78;30.66;98346.09;7032755;28;20235;-81
2022/09/09 14:57:19;;;;;;;1.57;1.10;;;;;;;27.20;30.50;98360.03;7032851;28;20240;-81
2022/09/09 15:00:41;;;;;;;1.27;0.73;;;;;;;26.88;31.32;98351.31;7033376;28;20197;-81
2022/09/09 15:04:05;;;;;;;1.43;0.80;;;;;;;27.13;30.07;98354.16;7021069;28;20787;-81
2022/09/09 15:07:28;;;;;;;1.60;1.03;;;;;;;27.23;30.13;98353.03;7008912;28;20344;-81
2022/09/09 15:10:49;;;;;;;0.97;0.83;;;;;;;26.87;30.30;98360.75;7016757;28;20217;-81
2022/09/09 15:14:12;;;;;;;1.00;0.90;;;;;;;26.64;30.18;98362.78;7015649;28;20282;-81
2022/09/09 15:17:33;;;;;;;2.30;1.00;;;;;;;27.31;28.82;98350.28;7008775;28;20215;-81
2022/09/09 15:20:56;;;;;;;1.03;1.00;;;;;;;27.46;29.19;98362.84;7006792;28;20210;-81
2022/09/09 15:24:18;;;;;;;2.33;1.10;;;;;;;26.65;30.74;98355.31;7016753;28;20259;-81
2022/09/09 15:27:40;;;;;;;1.67;0.97;;;;;;;26.70;30.46;98338.56;7033227;28;20230;-81
2022/09/09 15:31:06;;;;;;;2.03;1.07;;;;;;;26.56;30.43;98362.75;7036788;28;20233;-81
2022/09/09 15:34:28;;;;;;;2.33;1.10;;;;;;;26.65;30.39;98334.00;7013717;28;20206;-80
2022/09/09 15:37:51;;;;;;;2.17;1.13;;;;;;;27.01;29.81;98351.19;7006548;28;20308;-82
2022/09/09 15:41:13;;;;;;;2.17;0.90;;;;;;;26.24;31.14;98325.16;7007816;28;20255;-81
2022/09/09 15:44:39;;;;;;;0.83;0.83;;;;;;;26.46;30.47;98336.19;7008072;28;20224;-81
2022/09/09 15:48:01;;;;;;;1.20;0.87;;;;;;;26.43;31.13;98358.13;7008565;28;20312;-81
2022/09/09 15:51:24;;;;;;;1.90;1.30;;;;;;;26.34;31.51;98354.47;7008145;28;20674;-81
2022/09/09 15:54:47;;;;;;;1.40;0.90;;;;;;;26.47;30.91;98348.03;7007951;28;20206;-82
2022/09/09 15:58:09;;;;;;;1.67;0.90;;;;;;;26.53;31.48;98364.19;7012021;28;20318;-81
2022/09/09 16:01:31;;;;;;;3.00;1.40;;;;;;;26.27;31.61;98359.66;7007956;28;20292;-80
2022/09/09 16:04:53;;;;;;;5.53;1.30;;;;;;;25.87;32.26;98366.19;7007028;28;20201;-80